sensor_id;sensor_type;location;lat;lon;timestamp;P1;P2;P0
28026;PMS5003;15344;52.342;-1.290;2023-04-03T00:01:35;6;6;
28026;PMS5003;15344;52.342;-1.290;2023-04-03T00:04:01;6;4;
28026;PMS5003;15344;52.342;-1.290;2023-04-03T00:06:26;5;3;
28026;PMS5003;15344;52.342;-1.290;2023-04-03T00:08:52;4;4;
28026;PMS5003;15344;52.342;-1.290;2023-04-03T00:11:18;5;5;
28026;PMS5003;15344;52.342;-1.290;2023-04-03T00:13:43;3;3;
28026;PMS5003;15344;52.342;-1.290;2023-04-03T00:16:09;5;4;
28026;PMS5003;15344;52.342;-1.290;2023-04-03T00:18:34;8;5;
28026;PMS5003;15344;52.342;-1.290;2023-04-03T00:21:00;4;4;
28026;PMS5003;15344;52.342;-1.290;2023-04-03T00:23:25;5;3;
28026;PMS5003;15344;52.342;-1.290;2023-04-03T00:25:51;4;3;
28026;PMS5003;15344;52.342;-1.290;2023-04-03T00:28:17;4;4;
28026;PMS5003;15344;52.342;-1.290;2023-04-03T00:30:42;4;4;
28026;PMS5003;15344;52.342;-1.290;2023-04-03T00:33:08;4;4;
28026;PMS5003;15344;52.342;-1.290;2023-04-03T00:35:34;5;5;
28026;PMS5003;15344;52.342;-1.290;2023-04-03T00:37:59;3;3;
28026;PMS5003;15344;52.342;-1.290;2023-04-03T00:40:25;5;4;
28026;PMS5003;15344;52.342;-1.290;2023-04-03T00:42:51;7;5;
28026;PMS5003;15344;52.342;-1.290;2023-04-03T00:45:23;6;4;
28026;PMS5003;15344;52.342;-1.290;2023-04-03T00:47:41;9;4;
28026;PMS5003;15344;52.342;-1.290;2023-04-03T00:50:07;4;4;
28026;PMS5003;15344;52.342;-1.290;2023-04-03T00:52:32;6;3;
28026;PMS5003;15344;52.342;-1.290;2023-04-03T00:54:59;3;2;
28026;PMS5003;15344;52.342;-1.290;2023-04-03T00:57:24;5;3;
28026;PMS5003;15344;52.342;-1.290;2023-04-03T00:59:50;5;2;
28026;PMS5003;15344;52.342;-1.290;2023-04-03T01:02:15;6;3;
28026;PMS5003;15344;52.342;-1.290;2023-04-03T01:04:41;4;4;
28026;PMS5003;15344;52.342;-1.290;2023-04-03T01:07:07;6;4;
28026;PMS5003;15344;52.342;-1.290;2023-04-03T01:09:32;2;2;
28026;PMS5003;15344;52.342;-1.290;2023-04-03T01:14:23;9;5;
28026;PMS5003;15344;52.342;-1.290;2023-04-03T01:16:52;5;3;
28026;PMS5003;15344;52.342;-1.290;2023-04-03T01:19:14;8;3;
28026;PMS5003;15344;52.342;-1.290;2023-04-03T01:21:46;4;4;
28026;PMS5003;15344;52.342;-1.290;2023-04-03T01:24:09;4;4;
28026;PMS5003;15344;52.342;-1.290;2023-04-03T01:26:31;6;3;
28026;PMS5003;15344;52.342;-1.290;2023-04-03T01:28:58;7;5;
28026;PMS5003;15344;52.342;-1.290;2023-04-03T01:31:23;8;6;
28026;PMS5003;15344;52.342;-1.290;2023-04-03T01:33:47;7;5;
28026;PMS5003;15344;52.342;-1.290;2023-04-03T01:36:17;6;6;
28026;PMS5003;15344;52.342;-1.290;2023-04-03T01:38:39;6;6;
28026;PMS5003;15344;52.342;-1.290;2023-04-03T01:41:04;5;5;
28026;PMS5003;15344;52.342;-1.290;2023-04-03T01:43:30;5;4;
28026;PMS5003;15344;52.342;-1.290;2023-04-03T01:45:55;6;5;
28026;PMS5003;15344;52.342;-1.290;2023-04-03T01:48:21;8;5;
28026;PMS5003;15344;52.342;-1.290;2023-04-03T01:50:46;7;6;
28026;PMS5003;15344;52.342;-1.290;2023-04-03T01:53:12;9;5;
28026;PMS5003;15344;52.342;-1.290;2023-04-03T01:55:38;5;5;
28026;PMS5003;15344;52.342;-1.290;2023-04-03T01:58:03;5;3;
28026;PMS5003;15344;52.342;-1.290;2023-04-03T02:00:28;7;5;
28026;PMS5003;15344;52.342;-1.290;2023-04-03T02:02:54;5;5;
28026;PMS5003;15344;52.342;-1.290;2023-04-03T02:05:20;7;6;
28026;PMS5003;15344;52.342;-1.290;2023-04-03T02:07:45;9;6;
28026;PMS5003;15344;52.342;-1.290;2023-04-03T02:10:12;6;4;
28026;PMS5003;15344;52.342;-1.290;2023-04-03T02:12:36;8;6;
28026;PMS5003;15344;52.342;-1.290;2023-04-03T02:15:02;8;7;
28026;PMS5003;15344;52.342;-1.290;2023-04-03T02:17:27;8;6;
28026;PMS5003;15344;52.342;-1.290;2023-04-03T02:19:53;8;4;
28026;PMS5003;15344;52.342;-1.290;2023-04-03T02:22:18;10;7;
28026;PMS5003;15344;52.342;-1.290;2023-04-03T02:24:44;7;6;
28026;PMS5003;15344;52.342;-1.290;2023-04-03T02:27:10;7;5;
28026;PMS5003;15344;52.342;-1.290;2023-04-03T02:29:35;5;5;
28026;PMS5003;15344;52.342;-1.290;2023-04-03T02:32:01;9;7;
28026;PMS5003;15344;52.342;-1.290;2023-04-03T02:34:26;9;5;
28026;PMS5003;15344;52.342;-1.290;2023-04-03T02:36:52;5;5;
28026;PMS5003;15344;52.342;-1.290;2023-04-03T02:39:18;9;8;
28026;PMS5003;15344;52.342;-1.290;2023-04-03T02:41:43;9;5;
28026;PMS5003;15344;52.342;-1.290;2023-04-03T02:44:10;4;4;
28026;PMS5003;15344;52.342;-1.290;2023-04-03T02:46:34;11;6;
28026;PMS5003;15344;52.342;-1.290;2023-04-03T02:49:00;7;6;
28026;PMS5003;15344;52.342;-1.290;2023-04-03T02:51:26;9;6;
28026;PMS5003;15344;52.342;-1.290;2023-04-03T02:53:51;5;5;
28026;PMS5003;15344;52.342;-1.290;2023-04-03T02:56:17;7;5;
28026;PMS5003;15344;52.342;-1.290;2023-04-03T02:58:43;6;6;
28026;PMS5003;15344;52.342;-1.290;2023-04-03T03:01:08;7;7;
28026;PMS5003;15344;52.342;-1.290;2023-04-03T03:03:34;10;5;
28026;PMS5003;15344;52.342;-1.290;2023-04-03T03:06:02;5;5;
28026;PMS5003;15344;52.342;-1.290;2023-04-03T03:08:25;8;6;
28026;PMS5003;15344;52.342;-1.290;2023-04-03T03:10:51;9;8;
28026;PMS5003;15344;52.342;-1.290;2023-04-03T03:13:16;11;8;
28026;PMS5003;15344;52.342;-1.290;2023-04-03T03:15:42;6;5;
28026;PMS5003;15344;52.342;-1.290;2023-04-03T03:18:08;10;8;
28026;PMS5003;15344;52.342;-1.290;2023-04-03T03:20:33;8;6;
28026;PMS5003;15344;52.342;-1.290;2023-04-03T03:22:59;8;6;
28026;PMS5003;15344;52.342;-1.290;2023-04-03T03:25:24;11;10;
28026;PMS5003;15344;52.342;-1.290;2023-04-03T03:27:50;7;7;
28026;PMS5003;15344;52.342;-1.290;2023-04-03T03:30:16;7;7;
28026;PMS5003;15344;52.342;-1.290;2023-04-03T03:32:41;6;5;
28026;PMS5003;15344;52.342;-1.290;2023-04-03T03:35:07;12;10;
28026;PMS5003;15344;52.342;-1.290;2023-04-03T03:37:32;8;8;
28026;PMS5003;15344;52.342;-1.290;2023-04-03T03:39:58;8;7;
28026;PMS5003;15344;52.342;-1.290;2023-04-03T03:42:23;11;9;
28026;PMS5003;15344;52.342;-1.290;2023-04-03T03:44:49;10;7;
28026;PMS5003;15344;52.342;-1.290;2023-04-03T03:47:14;11;8;
28026;PMS5003;15344;52.342;-1.290;2023-04-03T03:49:40;8;7;
28026;PMS5003;15344;52.342;-1.290;2023-04-03T03:52:06;8;7;
28026;PMS5003;15344;52.342;-1.290;2023-04-03T03:54:31;8;7;
28026;PMS5003;15344;52.342;-1.290;2023-04-03T03:56:57;9;8;
28026;PMS5003;15344;52.342;-1.290;2023-04-03T03:59:22;10;6;
28026;PMS5003;15344;52.342;-1.290;2023-04-03T04:01:48;6;6;
28026;PMS5003;15344;52.342;-1.290;2023-04-03T04:04:14;12;10;
28026;PMS5003;15344;52.342;-1.290;2023-04-03T04:06:39;14;10;
28026;PMS5003;15344;52.342;-1.290;2023-04-03T04:09:04;7;7;
28026;PMS5003;15344;52.342;-1.290;2023-04-03T04:11:30;10;6;
28026;PMS5003;15344;52.342;-1.290;2023-04-03T04:13:56;9;5;
28026;PMS5003;15344;52.342;-1.290;2023-04-03T04:16:21;6;6;
28026;PMS5003;15344;52.342;-1.290;2023-04-03T04:18:47;8;6;
28026;PMS5003;15344;52.342;-1.290;2023-04-03T04:21:13;9;8;
28026;PMS5003;15344;52.342;-1.290;2023-04-03T04:23:38;9;6;
28026;PMS5003;15344;52.342;-1.290;2023-04-03T04:26:03;6;6;
28026;PMS5003;15344;52.342;-1.290;2023-04-03T04:28:29;9;6;
28026;PMS5003;15344;52.342;-1.290;2023-04-03T04:30:54;7;5;
28026;PMS5003;15344;52.342;-1.290;2023-04-03T04:33:20;9;7;
28026;PMS5003;15344;52.342;-1.290;2023-04-03T04:35:46;8;6;
28026;PMS5003;15344;52.342;-1.290;2023-04-03T04:38:11;7;7;
28026;PMS5003;15344;52.342;-1.290;2023-04-03T04:40:37;9;8;
28026;PMS5003;15344;52.342;-1.290;2023-04-03T04:43:02;10;6;
28026;PMS5003;15344;52.342;-1.290;2023-04-03T04:45:28;7;6;
28026;PMS5003;15344;52.342;-1.290;2023-04-03T04:47:54;8;6;
28026;PMS5003;15344;52.342;-1.290;2023-04-03T04:50:19;9;7;
28026;PMS5003;15344;52.342;-1.290;2023-04-03T04:52:45;7;5;
28026;PMS5003;15344;52.342;-1.290;2023-04-03T04:55:10;11;10;
28026;PMS5003;15344;52.342;-1.290;2023-04-03T04:57:36;8;6;
28026;PMS5003;15344;52.342;-1.290;2023-04-03T05:00:02;8;6;
28026;PMS5003;15344;52.342;-1.290;2023-04-03T05:02:27;9;7;
28026;PMS5003;15344;52.342;-1.290;2023-04-03T05:04:52;4;4;
28026;PMS5003;15344;52.342;-1.290;2023-04-03T05:07:18;5;5;
28026;PMS5003;15344;52.342;-1.290;2023-04-03T05:09:43;7;5;
28026;PMS5003;15344;52.342;-1.290;2023-04-03T05:12:09;5;5;
28026;PMS5003;15344;52.342;-1.290;2023-04-03T05:14:35;5;4;
28026;PMS5003;15344;52.342;-1.290;2023-04-03T05:17:00;8;6;
28026;PMS5003;15344;52.342;-1.290;2023-04-03T05:19:26;7;7;
28026;PMS5003;15344;52.342;-1.290;2023-04-03T05:21:51;14;9;
28026;PMS5003;15344;52.342;-1.290;2023-04-03T05:24:17;3;3;
28026;PMS5003;15344;52.342;-1.290;2023-04-03T05:26:43;6;6;
28026;PMS5003;15344;52.342;-1.290;2023-04-03T05:29:08;7;5;
28026;PMS5003;15344;52.342;-1.290;2023-04-03T05:31:33;7;6;
28026;PMS5003;15344;52.342;-1.290;2023-04-03T05:33:59;6;5;
28026;PMS5003;15344;52.342;-1.290;2023-04-03T05:36:24;5;5;
28026;PMS5003;15344;52.342;-1.290;2023-04-03T05:38:50;8;6;
28026;PMS5003;15344;52.342;-1.290;2023-04-03T05:41:16;8;5;
28026;PMS5003;15344;52.342;-1.290;2023-04-03T05:43:41;4;3;
28026;PMS5003;15344;52.342;-1.290;2023-04-03T05:46:09;6;6;
28026;PMS5003;15344;52.342;-1.290;2023-04-03T05:48:32;5;5;
28026;PMS5003;15344;52.342;-1.290;2023-04-03T05:50:58;6;5;
28026;PMS5003;15344;52.342;-1.290;2023-04-03T05:53:25;4;4;
28026;PMS5003;15344;52.342;-1.290;2023-04-03T05:55:49;8;5;
28026;PMS5003;15344;52.342;-1.290;2023-04-03T05:58:15;7;5;
28026;PMS5003;15344;52.342;-1.290;2023-04-03T06:00:40;5;5;
28026;PMS5003;15344;52.342;-1.290;2023-04-03T06:03:06;8;6;
28026;PMS5003;15344;52.342;-1.290;2023-04-03T06:05:32;7;5;
28026;PMS5003;15344;52.342;-1.290;2023-04-03T06:07:57;4;4;
28026;PMS5003;15344;52.342;-1.290;2023-04-03T06:10:23;9;6;
28026;PMS5003;15344;52.342;-1.290;2023-04-03T06:12:48;7;4;
28026;PMS5003;15344;52.342;-1.290;2023-04-03T06:15:14;6;4;
28026;PMS5003;15344;52.342;-1.290;2023-04-03T06:17:40;8;5;
28026;PMS5003;15344;52.342;-1.290;2023-04-03T06:20:06;6;4;
28026;PMS5003;15344;52.342;-1.290;2023-04-03T06:22:31;8;6;
28026;PMS5003;15344;52.342;-1.290;2023-04-03T06:24:56;5;5;
28026;PMS5003;15344;52.342;-1.290;2023-04-03T06:27:22;7;5;
28026;PMS5003;15344;52.342;-1.290;2023-04-03T06:29:48;4;4;
28026;PMS5003;15344;52.342;-1.290;2023-04-03T06:32:13;9;5;
28026;PMS5003;15344;52.342;-1.290;2023-04-03T06:34:39;6;6;
28026;PMS5003;15344;52.342;-1.290;2023-04-03T06:37:04;6;4;
28026;PMS5003;15344;52.342;-1.290;2023-04-03T06:39:30;6;5;
28026;PMS5003;15344;52.342;-1.290;2023-04-03T06:41:56;8;4;
28026;PMS5003;15344;52.342;-1.290;2023-04-03T06:44:21;7;6;
28026;PMS5003;15344;52.342;-1.290;2023-04-03T06:46:47;5;4;
28026;PMS5003;15344;52.342;-1.290;2023-04-03T06:49:12;7;5;
28026;PMS5003;15344;52.342;-1.290;2023-04-03T06:51:38;4;4;
28026;PMS5003;15344;52.342;-1.290;2023-04-03T06:54:04;6;4;
28026;PMS5003;15344;52.342;-1.290;2023-04-03T06:56:29;7;4;
28026;PMS5003;15344;52.342;-1.290;2023-04-03T06:58:55;8;4;
28026;PMS5003;15344;52.342;-1.290;2023-04-03T07:01:20;11;7;
28026;PMS5003;15344;52.342;-1.290;2023-04-03T07:03:46;7;5;
28026;PMS5003;15344;52.342;-1.290;2023-04-03T07:06:12;8;7;
28026;PMS5003;15344;52.342;-1.290;2023-04-03T07:08:37;6;6;
28026;PMS5003;15344;52.342;-1.290;2023-04-03T07:11:03;10;6;
28026;PMS5003;15344;52.342;-1.290;2023-04-03T07:13:28;6;4;
28026;PMS5003;15344;52.342;-1.290;2023-04-03T07:15:54;5;5;
28026;PMS5003;15344;52.342;-1.290;2023-04-03T07:18:19;5;4;
28026;PMS5003;15344;52.342;-1.290;2023-04-03T07:20:45;8;5;
28026;PMS5003;15344;52.342;-1.290;2023-04-03T07:23:10;3;3;
28026;PMS5003;15344;52.342;-1.290;2023-04-03T07:25:36;4;4;
28026;PMS5003;15344;52.342;-1.290;2023-04-03T07:28:01;7;4;
28026;PMS5003;15344;52.342;-1.290;2023-04-03T07:30:27;10;7;
28026;PMS5003;15344;52.342;-1.290;2023-04-03T07:32:52;4;4;
28026;PMS5003;15344;52.342;-1.290;2023-04-03T07:35:18;6;4;
28026;PMS5003;15344;52.342;-1.290;2023-04-03T07:37:44;5;3;
28026;PMS5003;15344;52.342;-1.290;2023-04-03T07:40:09;4;4;
28026;PMS5003;15344;52.342;-1.290;2023-04-03T07:42:34;5;5;
28026;PMS5003;15344;52.342;-1.290;2023-04-03T07:45:00;5;3;
28026;PMS5003;15344;52.342;-1.290;2023-04-03T07:47:25;2;2;
28026;PMS5003;15344;52.342;-1.290;2023-04-03T07:49:51;6;4;
28026;PMS5003;15344;52.342;-1.290;2023-04-03T07:52:16;3;3;
28026;PMS5003;15344;52.342;-1.290;2023-04-03T07:54:42;3;3;
28026;PMS5003;15344;52.342;-1.290;2023-04-03T07:57:07;3;3;
28026;PMS5003;15344;52.342;-1.290;2023-04-03T07:59:33;4;4;
28026;PMS5003;15344;52.342;-1.290;2023-04-03T08:01:58;4;4;
28026;PMS5003;15344;52.342;-1.290;2023-04-03T08:04:24;3;3;
28026;PMS5003;15344;52.342;-1.290;2023-04-03T08:06:49;4;4;
28026;PMS5003;15344;52.342;-1.290;2023-04-03T08:09:15;7;6;
28026;PMS5003;15344;52.342;-1.290;2023-04-03T08:11:40;4;1;
28026;PMS5003;15344;52.342;-1.290;2023-04-03T08:14:05;5;5;
28026;PMS5003;15344;52.342;-1.290;2023-04-03T08:16:31;3;3;
28026;PMS5003;15344;52.342;-1.290;2023-04-03T08:18:56;5;5;
28026;PMS5003;15344;52.342;-1.290;2023-04-03T08:21:21;6;2;
28026;PMS5003;15344;52.342;-1.290;2023-04-03T08:23:47;4;2;
28026;PMS5003;15344;52.342;-1.290;2023-04-03T08:26:13;3;3;
28026;PMS5003;15344;52.342;-1.290;2023-04-03T08:28:38;4;4;
28026;PMS5003;15344;52.342;-1.290;2023-04-03T08:31:04;9;9;
28026;PMS5003;15344;52.342;-1.290;2023-04-03T08:33:29;4;4;
28026;PMS5003;15344;52.342;-1.290;2023-04-03T08:35:54;2;2;
28026;PMS5003;15344;52.342;-1.290;2023-04-03T08:38:19;2;2;
28026;PMS5003;15344;52.342;-1.290;2023-04-03T08:40:44;2;2;
28026;PMS5003;15344;52.342;-1.290;2023-04-03T08:45:37;5;5;
28026;PMS5003;15344;52.342;-1.290;2023-04-03T08:48:02;3;3;
28026;PMS5003;15344;52.342;-1.290;2023-04-03T08:50:29;4;3;
28026;PMS5003;15344;52.342;-1.290;2023-04-03T08:52:51;6;5;
28026;PMS5003;15344;52.342;-1.290;2023-04-03T08:55:20;3;3;
28026;PMS5003;15344;52.342;-1.290;2023-04-03T08:57:43;2;2;
28026;PMS5003;15344;52.342;-1.290;2023-04-03T09:00:13;4;3;
28026;PMS5003;15344;52.342;-1.290;2023-04-03T09:02:33;4;4;
28026;PMS5003;15344;52.342;-1.290;2023-04-03T09:04:58;3;3;
28026;PMS5003;15344;52.342;-1.290;2023-04-03T09:07:25;4;3;
28026;PMS5003;15344;52.342;-1.290;2023-04-03T09:09:53;7;3;
28026;PMS5003;15344;52.342;-1.290;2023-04-03T09:12:16;6;4;
28026;PMS5003;15344;52.342;-1.290;2023-04-03T09:14:39;4;2;
28026;PMS5003;15344;52.342;-1.290;2023-04-03T09:17:08;4;4;
28026;PMS5003;15344;52.342;-1.290;2023-04-03T09:19:33;5;4;
28026;PMS5003;15344;52.342;-1.290;2023-04-03T09:21:56;3;3;
28026;PMS5003;15344;52.342;-1.290;2023-04-03T09:24:20;4;3;
28026;PMS5003;15344;52.342;-1.290;2023-04-03T09:26:47;8;5;
28026;PMS5003;15344;52.342;-1.290;2023-04-03T09:29:14;3;2;
28026;PMS5003;15344;52.342;-1.290;2023-04-03T09:31:38;3;3;
28026;PMS5003;15344;52.342;-1.290;2023-04-03T09:34:02;3;3;
28026;PMS5003;15344;52.342;-1.290;2023-04-03T09:41:17;3;3;
28026;PMS5003;15344;52.342;-1.290;2023-04-03T09:43:51;6;5;
28026;PMS5003;15344;52.342;-1.290;2023-04-03T09:48:33;4;4;
28026;PMS5003;15344;52.342;-1.290;2023-04-03T09:50:59;5;4;
28026;PMS5003;15344;52.342;-1.290;2023-04-03T09:55:49;3;3;
28026;PMS5003;15344;52.342;-1.290;2023-04-03T10:00:40;3;3;
28026;PMS5003;15344;52.342;-1.290;2023-04-03T10:03:08;5;5;
28026;PMS5003;15344;52.342;-1.290;2023-04-03T10:05:33;3;3;
28026;PMS5003;15344;52.342;-1.290;2023-04-03T10:10:22;6;5;
28026;PMS5003;15344;52.342;-1.290;2023-04-03T10:12:47;7;6;
28026;PMS5003;15344;52.342;-1.290;2023-04-03T10:15:12;3;3;
28026;PMS5003;15344;52.342;-1.290;2023-04-03T10:17:41;6;4;
28026;PMS5003;15344;52.342;-1.290;2023-04-03T10:20:06;4;4;
28026;PMS5003;15344;52.342;-1.290;2023-04-03T10:22:30;4;4;
28026;PMS5003;15344;52.342;-1.290;2023-04-03T10:24:57;5;4;
28026;PMS5003;15344;52.342;-1.290;2023-04-03T10:27:21;8;6;
28026;PMS5003;15344;52.342;-1.290;2023-04-03T10:29:46;5;4;
28026;PMS5003;15344;52.342;-1.290;2023-04-03T10:32:15;6;6;
28026;PMS5003;15344;52.342;-1.290;2023-04-03T10:34:35;5;5;
28026;PMS5003;15344;52.342;-1.290;2023-04-03T10:37:02;6;6;
28026;PMS5003;15344;52.342;-1.290;2023-04-03T10:39:27;8;5;
28026;PMS5003;15344;52.342;-1.290;2023-04-03T10:41:54;8;7;
28026;PMS5003;15344;52.342;-1.290;2023-04-03T10:44:18;6;6;
28026;PMS5003;15344;52.342;-1.290;2023-04-03T10:46:42;4;4;
28026;PMS5003;15344;52.342;-1.290;2023-04-03T10:49:11;6;5;
28026;PMS5003;15344;52.342;-1.290;2023-04-03T10:51:34;6;6;
28026;PMS5003;15344;52.342;-1.290;2023-04-03T10:53:59;7;5;
28026;PMS5003;15344;52.342;-1.290;2023-04-03T10:56:26;7;7;
28026;PMS5003;15344;52.342;-1.290;2023-04-03T10:58:49;8;5;
28026;PMS5003;15344;52.342;-1.290;2023-04-03T11:01:15;6;6;
28026;PMS5003;15344;52.342;-1.290;2023-04-03T11:03:40;7;6;
28026;PMS5003;15344;52.342;-1.290;2023-04-03T11:06:05;11;8;
28026;PMS5003;15344;52.342;-1.290;2023-04-03T11:08:32;7;6;
28026;PMS5003;15344;52.342;-1.290;2023-04-03T11:10:56;4;3;
28026;PMS5003;15344;52.342;-1.290;2023-04-03T11:13:22;9;6;
28026;PMS5003;15344;52.342;-1.290;2023-04-03T11:15:46;7;5;
28026;PMS5003;15344;52.342;-1.290;2023-04-03T11:18:13;9;6;
28026;PMS5003;15344;52.342;-1.290;2023-04-03T11:20:37;5;5;
28026;PMS5003;15344;52.342;-1.290;2023-04-03T11:23:04;6;6;
28026;PMS5003;15344;52.342;-1.290;2023-04-03T11:25:28;7;7;
28026;PMS5003;15344;52.342;-1.290;2023-04-03T11:27:54;10;9;
28026;PMS5003;15344;52.342;-1.290;2023-04-03T11:30:19;8;5;
28026;PMS5003;15344;52.342;-1.290;2023-04-03T11:35:09;6;6;
28026;PMS5003;15344;52.342;-1.290;2023-04-03T11:37:36;5;5;
28026;PMS5003;15344;52.342;-1.290;2023-04-03T11:40:01;7;6;
28026;PMS5003;15344;52.342;-1.290;2023-04-03T11:42:27;10;8;
28026;PMS5003;15344;52.342;-1.290;2023-04-03T11:44:51;7;6;
28026;PMS5003;15344;52.342;-1.290;2023-04-03T11:52:09;6;6;
28026;PMS5003;15344;52.342;-1.290;2023-04-03T11:56:58;8;8;
28026;PMS5003;15344;52.342;-1.290;2023-04-03T11:59:24;6;6;
28026;PMS5003;15344;52.342;-1.290;2023-04-03T12:01:49;6;5;
28026;PMS5003;15344;52.342;-1.290;2023-04-03T12:04:15;10;8;
28026;PMS5003;15344;52.342;-1.290;2023-04-03T12:06:42;10;6;
28026;PMS5003;15344;52.342;-1.290;2023-04-03T12:09:10;6;5;
28026;PMS5003;15344;52.342;-1.290;2023-04-03T12:11:31;5;5;
28026;PMS5003;15344;52.342;-1.290;2023-04-03T12:16:22;8;6;
28026;PMS5003;15344;52.342;-1.290;2023-04-03T12:21:12;5;5;
28026;PMS5003;15344;52.342;-1.290;2023-04-03T12:26:05;6;5;
28026;PMS5003;15344;52.342;-1.290;2023-04-03T12:28:29;5;5;
28026;PMS5003;15344;52.342;-1.290;2023-04-03T12:30:53;6;6;
28026;PMS5003;15344;52.342;-1.290;2023-04-03T12:33:22;8;6;
28026;PMS5003;15344;52.342;-1.290;2023-04-03T12:35:46;5;5;
28026;PMS5003;15344;52.342;-1.290;2023-04-03T12:38:14;5;5;
28026;PMS5003;15344;52.342;-1.290;2023-04-03T12:40:36;5;5;
28026;PMS5003;15344;52.342;-1.290;2023-04-03T12:45:25;5;5;
28026;PMS5003;15344;52.342;-1.290;2023-04-03T12:47:51;8;8;
28026;PMS5003;15344;52.342;-1.290;2023-04-03T12:50:17;7;5;
28026;PMS5003;15344;52.342;-1.290;2023-04-03T12:52:41;5;5;
28026;PMS5003;15344;52.342;-1.290;2023-04-03T12:55:12;11;9;
28026;PMS5003;15344;52.342;-1.290;2023-04-03T12:57:32;10;10;
28026;PMS5003;15344;52.342;-1.290;2023-04-03T12:59:57;4;4;
28026;PMS5003;15344;52.342;-1.290;2023-04-03T13:02:23;6;5;
28026;PMS5003;15344;52.342;-1.290;2023-04-03T13:04:48;4;4;
28026;PMS5003;15344;52.342;-1.290;2023-04-03T13:09:38;11;7;
28026;PMS5003;15344;52.342;-1.290;2023-04-03T13:12:09;7;5;
28026;PMS5003;15344;52.342;-1.290;2023-04-03T13:14:29;8;6;
28026;PMS5003;15344;52.342;-1.290;2023-04-03T13:16:54;9;8;
28026;PMS5003;15344;52.342;-1.290;2023-04-03T13:19:19;8;8;
28026;PMS5003;15344;52.342;-1.290;2023-04-03T13:21:45;7;7;
28026;PMS5003;15344;52.342;-1.290;2023-04-03T13:24:10;5;5;
28026;PMS5003;15344;52.342;-1.290;2023-04-03T13:26:35;6;6;
28026;PMS5003;15344;52.342;-1.290;2023-04-03T13:29:01;5;5;
28026;PMS5003;15344;52.342;-1.290;2023-04-03T13:31:27;6;5;
28026;PMS5003;15344;52.342;-1.290;2023-04-03T13:33:55;6;6;
28026;PMS5003;15344;52.342;-1.290;2023-04-03T13:36:17;8;8;
28026;PMS5003;15344;52.342;-1.290;2023-04-03T13:38:41;8;7;
28026;PMS5003;15344;52.342;-1.290;2023-04-03T13:43:33;9;8;
28026;PMS5003;15344;52.342;-1.290;2023-04-03T13:45:59;10;7;
28026;PMS5003;15344;52.342;-1.290;2023-04-03T13:48:23;3;3;
28026;PMS5003;15344;52.342;-1.290;2023-04-03T13:53:13;9;5;
28026;PMS5003;15344;52.342;-1.290;2023-04-03T14:02:55;9;8;
28026;PMS5003;15344;52.342;-1.290;2023-04-03T14:05:20;12;9;
28026;PMS5003;15344;52.342;-1.290;2023-04-03T14:07:45;9;9;
28026;PMS5003;15344;52.342;-1.290;2023-04-03T14:10:11;11;7;
28026;PMS5003;15344;52.342;-1.290;2023-04-03T14:12:37;10;8;
28026;PMS5003;15344;52.342;-1.290;2023-04-03T14:15:02;8;8;
28026;PMS5003;15344;52.342;-1.290;2023-04-03T14:17:27;10;7;
28026;PMS5003;15344;52.342;-1.290;2023-04-03T14:19:53;8;8;
28026;PMS5003;15344;52.342;-1.290;2023-04-03T14:22:18;8;8;
28026;PMS5003;15344;52.342;-1.290;2023-04-03T14:24:43;7;7;
28026;PMS5003;15344;52.342;-1.290;2023-04-03T14:27:11;6;6;
28026;PMS5003;15344;52.342;-1.290;2023-04-03T14:29:34;10;10;
28026;PMS5003;15344;52.342;-1.290;2023-04-03T14:31:59;9;9;
28026;PMS5003;15344;52.342;-1.290;2023-04-03T14:34:24;12;11;
28026;PMS5003;15344;52.342;-1.290;2023-04-03T14:36:50;11;9;
28026;PMS5003;15344;52.342;-1.290;2023-04-03T14:39:16;8;7;
28026;PMS5003;15344;52.342;-1.290;2023-04-03T14:41:40;8;8;
28026;PMS5003;15344;52.342;-1.290;2023-04-03T14:44:05;10;9;
28026;PMS5003;15344;52.342;-1.290;2023-04-03T14:46:32;8;7;
28026;PMS5003;15344;52.342;-1.290;2023-04-03T14:48:56;8;8;
28026;PMS5003;15344;52.342;-1.290;2023-04-03T14:51:21;10;8;
28026;PMS5003;15344;52.342;-1.290;2023-04-03T14:53:47;7;7;
28026;PMS5003;15344;52.342;-1.290;2023-04-03T14:56:13;10;8;
28026;PMS5003;15344;52.342;-1.290;2023-04-03T14:58:37;11;6;
28026;PMS5003;15344;52.342;-1.290;2023-04-03T15:01:03;8;8;
28026;PMS5003;15344;52.342;-1.290;2023-04-03T15:03:28;7;7;
28026;PMS5003;15344;52.342;-1.290;2023-04-03T15:05:53;9;9;
28026;PMS5003;15344;52.342;-1.290;2023-04-03T15:08:20;12;10;
28026;PMS5003;15344;52.342;-1.290;2023-04-03T15:10:44;9;7;
28026;PMS5003;15344;52.342;-1.290;2023-04-03T15:13:10;16;9;
28026;PMS5003;15344;52.342;-1.290;2023-04-03T15:15:35;11;11;
28026;PMS5003;15344;52.342;-1.290;2023-04-03T15:18:00;13;11;
28026;PMS5003;15344;52.342;-1.290;2023-04-03T15:20:26;13;12;
28026;PMS5003;15344;52.342;-1.290;2023-04-03T15:22:51;10;8;
28026;PMS5003;15344;52.342;-1.290;2023-04-03T15:25:17;10;10;
28026;PMS5003;15344;52.342;-1.290;2023-04-03T15:27:42;8;7;
28026;PMS5003;15344;52.342;-1.290;2023-04-03T15:30:11;11;8;
28026;PMS5003;15344;52.342;-1.290;2023-04-03T15:32:33;8;8;
28026;PMS5003;15344;52.342;-1.290;2023-04-03T15:34:58;14;11;
28026;PMS5003;15344;52.342;-1.290;2023-04-03T15:37:24;9;8;
28026;PMS5003;15344;52.342;-1.290;2023-04-03T15:39:55;8;8;
28026;PMS5003;15344;52.342;-1.290;2023-04-03T15:42:15;11;11;
28026;PMS5003;15344;52.342;-1.290;2023-04-03T15:44:40;11;8;
28026;PMS5003;15344;52.342;-1.290;2023-04-03T15:47:05;11;9;
28026;PMS5003;15344;52.342;-1.290;2023-04-03T15:49:32;8;8;
28026;PMS5003;15344;52.342;-1.290;2023-04-03T15:51:56;9;7;
28026;PMS5003;15344;52.342;-1.290;2023-04-03T15:54:22;11;10;
28026;PMS5003;15344;52.342;-1.290;2023-04-03T15:56:47;11;10;
28026;PMS5003;15344;52.342;-1.290;2023-04-03T15:59:12;11;10;
28026;PMS5003;15344;52.342;-1.290;2023-04-03T16:01:38;9;8;
28026;PMS5003;15344;52.342;-1.290;2023-04-03T16:04:03;8;8;
28026;PMS5003;15344;52.342;-1.290;2023-04-03T16:06:28;13;8;
28026;PMS5003;15344;52.342;-1.290;2023-04-03T16:08:54;8;8;
28026;PMS5003;15344;52.342;-1.290;2023-04-03T16:11:19;9;7;
28026;PMS5003;15344;52.342;-1.290;2023-04-03T16:13:44;9;9;
28026;PMS5003;15344;52.342;-1.290;2023-04-03T16:16:10;8;8;
28026;PMS5003;15344;52.342;-1.290;2023-04-03T16:18:35;7;7;
28026;PMS5003;15344;52.342;-1.290;2023-04-03T16:21:00;9;9;
28026;PMS5003;15344;52.342;-1.290;2023-04-03T16:23:26;15;14;
28026;PMS5003;15344;52.342;-1.290;2023-04-03T16:25:51;13;11;
28026;PMS5003;15344;52.342;-1.290;2023-04-03T16:28:16;9;7;
28026;PMS5003;15344;52.342;-1.290;2023-04-03T16:30:41;9;8;
28026;PMS5003;15344;52.342;-1.290;2023-04-03T16:33:07;13;12;
28026;PMS5003;15344;52.342;-1.290;2023-04-03T16:35:32;9;9;
28026;PMS5003;15344;52.342;-1.290;2023-04-03T16:37:57;8;7;
28026;PMS5003;15344;52.342;-1.290;2023-04-03T16:40:23;10;9;
28026;PMS5003;15344;52.342;-1.290;2023-04-03T16:42:48;9;9;
28026;PMS5003;15344;52.342;-1.290;2023-04-03T16:45:14;10;8;
28026;PMS5003;15344;52.342;-1.290;2023-04-03T16:47:39;9;9;
28026;PMS5003;15344;52.342;-1.290;2023-04-03T16:50:05;8;8;
28026;PMS5003;15344;52.342;-1.290;2023-04-03T16:52:30;14;9;
28026;PMS5003;15344;52.342;-1.290;2023-04-03T16:54:56;8;8;
28026;PMS5003;15344;52.342;-1.290;2023-04-03T16:57:21;9;8;
28026;PMS5003;15344;52.342;-1.290;2023-04-03T16:59:46;10;8;
28026;PMS5003;15344;52.342;-1.290;2023-04-03T17:02:12;10;9;
28026;PMS5003;15344;52.342;-1.290;2023-04-03T17:04:38;9;8;
28026;PMS5003;15344;52.342;-1.290;2023-04-03T17:07:03;10;10;
28026;PMS5003;15344;52.342;-1.290;2023-04-03T17:09:29;8;8;
28026;PMS5003;15344;52.342;-1.290;2023-04-03T17:11:54;11;10;